Time;durP1;ratioP1;P1;durP2;ratioP2;P2;SDS_P1;SDS_P2;PMS_P1;PMS_P2;Temp;Humidity;BMP_temperature;BMP_pressure;BME280_temperature;BME280_humidity;BME280_pressure;Samples;Min_cycle;Max_cycle;Signal;HPM_P1;HPM_P2
2022/01/01 00:23:07;;;;;;;43.25;31.08;;;7.10;89.30;;;;;;4935830;29;20040;-96
2022/01/01 00:26:39;;;;;;;45.75;32.30;;;7.10;89.10;;;;;;4939694;29;20028;-96
2022/01/01 00:29:54;;;;;;;41.60;29.88;;;7.10;88.90;;;;;;4934026;29;20039;-96
2022/01/01 00:33:31;;;;;;;41.55;30.27;;;7.10;88.80;;;;;;4910979;29;20052;-96
2022/01/01 00:37:17;;;;;;;37.70;27.77;;;7.10;88.70;;;;;;4829049;29;20105;-96
2022/01/01 00:40:42;;;;;;;35.72;25.08;;;7.10;88.90;;;;;;4810782;29;20039;-96
2022/01/01 00:44:16;;;;;;;26.58;20.48;;;7.10;88.90;;;;;;4810925;29;20020;-95
2022/01/01 00:47:27;;;;;;;23.77;18.90;;;7.00;88.80;;;;;;4820138;29;20080;-96
2022/01/01 00:51:08;;;;;;;22.95;18.67;;;7.00;88.90;;;;;;4879665;29;20029;-96
2022/01/01 00:54:03;;;;;;;20.70;17.58;;;6.90;88.80;;;;;;4865250;29;20045;-96
2022/01/01 00:57:42;;;;;;;21.40;17.23;;;6.90;88.80;;;;;;4871229;29;20049;-96
2022/01/01 01:01:17;;;;;;;24.98;19.13;;;6.90;89.00;;;;;;4902827;29;20074;-96
2022/01/01 01:07:27;;;;;;;26.23;17.55;;;6.90;89.10;;;;;;4911669;26;20074;-82
2022/01/01 01:09:52;;;;;;;25.92;19.35;;;6.90;89.20;;;;;;4947583;28;20487;-81
2022/01/01 01:12:24;;;;;;;35.72;20.02;;;6.80;89.60;;;;;;4953794;28;20046;-82
2022/01/01 01:14:49;;;;;;;27.33;20.50;;;6.80;89.20;;;;;;4944955;28;20122;-81
2022/01/01 01:17:15;;;;;;;26.52;20.23;;;6.80;89.50;;;;;;4924500;29;20130;-81
2022/01/01 01:19:41;;;;;;;26.63;20.55;;;6.80;89.60;;;;;;4951825;28;20039;-81
2022/01/01 01:22:07;;;;;;;27.77;20.63;;;6.80;89.80;;;;;;4944168;29;20043;-81
2022/01/01 01:24:33;;;;;;;25.23;20.20;;;6.90;89.80;;;;;;4948501;28;20031;-81
2022/01/01 01:27:02;;;;;;;24.90;19.90;;;6.90;89.70;;;;;;4947549;28;20047;-81
2022/01/01 01:29:33;;;;;;;24.80;20.70;;;6.90;89.90;;;;;;4942181;29;20066;-81
2022/01/01 01:31:59;;;;;;;25.52;20.65;;;6.90;89.70;;;;;;4958179;28;20035;-81
2022/01/01 01:34:24;;;;;;;25.05;20.40;;;6.90;90.10;;;;;;4945982;28;20059;-81
2022/01/01 01:36:50;;;;;;;26.35;20.05;;;6.90;89.60;;;;;;4938718;29;20036;-81
2022/01/01 01:39:16;;;;;;;32.53;22.30;;;6.90;89.50;;;;;;4942796;29;20123;-81
2022/01/01 01:41:43;;;;;;;25.95;20.63;;;6.80;89.50;;;;;;4948996;28;20044;-81
2022/01/01 01:44:28;;;;;;;24.45;19.52;;;6.90;89.60;;;;;;4950938;28;20074;-81
2022/01/01 01:46:54;;;;;;;22.95;19.35;;;6.90;89.50;;;;;;4954642;28;20039;-80
2022/01/01 01:49:20;;;;;;;21.80;18.80;;;6.90;89.40;;;;;;4942863;28;20471;-81
2022/01/01 01:51:46;;;;;;;21.88;18.15;;;6.90;89.40;;;;;;4953476;28;20071;-81
2022/01/01 01:54:13;;;;;;;21.88;18.05;;;6.90;89.30;;;;;;4947145;29;20039;-82
2022/01/01 01:56:39;;;;;;;26.63;17.75;;;6.90;89.10;;;;;;4958243;28;20363;-82
2022/01/01 01:59:05;;;;;;;20.65;17.77;;;6.90;89.10;;;;;;4958586;28;20039;-81
2022/01/01 02:01:31;;;;;;;21.50;18.25;;;6.90;89.20;;;;;;4951331;28;20035;-81
2022/01/01 02:03:57;;;;;;;19.10;16.50;;;6.90;89.20;;;;;;4951851;28;20164;-80
2022/01/01 02:06:24;;;;;;;19.88;16.80;;;6.90;89.00;;;;;;4927343;29;20056;-81
2022/01/01 02:08:52;;;;;;;19.38;17.17;;;6.90;89.00;;;;;;4953782;28;20102;-81
2022/01/01 02:11:20;;;;;;;21.00;17.77;;;6.90;89.00;;;;;;4950547;28;20083;-81
2022/01/01 02:18:49;;;;;;;41.20;18.83;;;6.90;88.90;;;;;;4942345;29;20499;-81
2022/01/01 02:21:15;;;;;;;21.08;16.63;;;7.00;88.50;;;;;;4956177;28;20046;-82
2022/01/01 02:23:44;;;;;;;20.20;17.55;;;6.90;88.40;;;;;;4933423;29;20036;-81
2022/01/01 02:26:12;;;;;;;25.02;19.00;;;6.90;88.70;;;;;;4955875;29;20514;-81
2022/01/01 02:28:47;;;;;;;24.45;18.92;;;6.80;88.60;;;;;;4941368;29;20035;-80
2022/01/01 02:31:14;;;;;;;28.85;18.35;;;6.80;88.70;;;;;;4943931;29;20179;-81
2022/01/01 02:33:42;;;;;;;21.20;17.58;;;6.80;88.90;;;;;;4946820;29;20051;-81
2022/01/01 02:36:08;;;;;;;27.95;17.25;;;6.70;89.20;;;;;;4952634;28;20085;-81
2022/01/01 02:38:35;;;;;;;19.88;17.05;;;6.60;89.20;;;;;;4931008;29;20325;-81
2022/01/01 02:41:00;;;;;;;25.58;17.50;;;6.60;89.30;;;;;;4952472;28;20126;-82
2022/01/01 02:43:26;;;;;;;32.05;17.45;;;6.50;89.40;;;;;;4938805;28;20155;-82
2022/01/01 02:45:53;;;;;;;26.48;19.10;;;6.50;89.60;;;;;;4949975;29;20209;-81
2022/01/01 02:48:18;;;;;;;30.00;18.33;;;6.50;89.80;;;;;;4930918;29;20039;-81
2022/01/01 02:50:44;;;;;;;30.50;18.83;;;6.40;90.00;;;;;;4941239;28;20050;-81
2022/01/01 02:53:14;;;;;;;26.90;20.15;;;6.40;90.10;;;;;;4927527;29;20039;-81
2022/01/01 02:55:41;;;;;;;23.90;19.58;;;6.40;90.20;;;;;;4939599;29;20040;-81
2022/01/01 02:58:09;;;;;;;28.77;20.73;;;6.40;90.20;;;;;;4939646;29;20043;-80
2022/01/01 03:00:35;;;;;;;28.73;19.65;;;6.50;90.10;;;;;;4934336;28;20494;-80
2022/01/01 03:03:00;;;;;;;24.48;19.80;;;6.50;90.00;;;;;;4957033;28;20115;-80
2022/01/01 03:05:27;;;;;;;23.85;17.77;;;6.50;90.00;;;;;;4931060;29;20493;-80
2022/01/01 03:07:52;;;;;;;25.63;18.08;;;6.50;89.60;;;;;;4928345;29;20054;-80
2022/01/01 03:10:18;;;;;;;25.85;18.90;;;6.40;89.50;;;;;;4939236;29;20044;-80
2022/01/01 03:12:44;;;;;;;140.88;34.08;;;6.40;89.70;;;;;;4923236;29;20051;-80
2022/01/01 03:15:10;;;;;;;23.40;18.92;;;6.10;89.60;;;;;;4952255;28;20115;-80
2022/01/01 03:17:35;;;;;;;31.88;18.92;;;6.10;90.30;;;;;;4948217;28;20028;-80
2022/01/01 03:20:01;;;;;;;84.47;31.17;;;6.10;90.40;;;;;;4926167;29;20448;-80
2022/01/01 03:22:27;;;;;;;32.97;18.17;;;6.00;90.20;;;;;;4938231;28;20064;-80
2022/01/01 03:24:52;;;;;;;24.40;17.77;;;5.90;90.70;;;;;;4952203;28;20039;-80
2022/01/01 03:27:18;;;;;;;20.48;17.05;;;5.90;90.60;;;;;;4944550;29;20039;-81
2022/01/01 03:29:44;;;;;;;24.17;17.98;;;5.90;90.60;;;;;;4949042;28;20508;-81
2022/01/01 03:32:09;;;;;;;23.42;18.77;;;6.00;90.70;;;;;;4942968;28;20368;-81
2022/01/01 03:34:35;;;;;;;31.02;19.00;;;6.10;90.60;;;;;;4938962;28;20740;-82
2022/01/01 03:37:01;;;;;;;24.02;18.73;;;6.10;90.20;;;;;;4951468;28;20729;-81
2022/01/01 03:39:27;;;;;;;22.63;18.45;;;6.10;90.20;;;;;;4943772;28;20381;-81
2022/01/01 03:41:53;;;;;;;24.63;17.27;;;6.20;90.30;;;;;;4948732;28;20466;-81
2022/01/01 03:44:18;;;;;;;23.00;19.02;;;6.20;90.20;;;;;;4954776;28;20074;-81
2022/01/01 03:46:45;;;;;;;23.95;17.33;;;6.20;90.10;;;;;;4923031;28;20048;-81
2022/01/01 03:49:10;;;;;;;52.58;25.58;;;6.20;89.90;;;;;;4948521;28;20049;-82
2022/01/01 03:51:36;;;;;;;21.00;16.83;;;6.10;89.00;;;;;;4947100;28;20031;-81
2022/01/01 03:54:02;;;;;;;26.63;19.98;;;6.00;89.80;;;;;;4931245;29;20126;-80
2022/01/01 03:56:27;;;;;;;23.58;19.95;;;6.00;89.80;;;;;;4952665;28;20043;-81
2022/01/01 03:58:53;;;;;;;34.88;17.75;;;6.00;90.00;;;;;;4943887;28;20047;-81
2022/01/01 04:01:19;;;;;;;19.05;16.15;;;6.00;89.50;;;;;;4943893;29;20035;-81
2022/01/01 04:03:44;;;;;;;25.85;19.80;;;5.90;90.00;;;;;;4944824;29;20043;-80
2022/01/01 04:06:10;;;;;;;26.35;17.75;;;5.90;89.80;;;;;;4950362;28;20059;-80
2022/01/01 04:08:36;;;;;;;24.10;18.95;;;5.90;90.00;;;;;;4948528;29;20044;-80
2022/01/01 04:11:01;;;;;;;24.80;19.02;;;5.90;90.10;;;;;;4951508;29;20468;-80
2022/01/01 04:13:27;;;;;;;24.08;19.60;;;5.90;90.10;;;;;;4937977;29;20054;-80
2022/01/01 04:15:53;;;;;;;24.95;19.83;;;6.00;90.10;;;;;;4921171;29;20122;-80
2022/01/01 04:18:28;;;;;;;28.13;20.23;;;6.00;90.00;;;;;;4928306;29;20046;-80
2022/01/01 04:20:53;;;;;;;23.83;17.23;;;6.10;89.70;;;;;;4940124;29;20074;-81
2022/01/01 04:23:19;;;;;;;22.23;17.95;;;6.00;89.40;;;;;;4949517;29;20449;-80
2022/01/01 04:25:47;;;;;;;47.13;24.02;;;6.00;89.40;;;;;;4946675;28;20043;-80
2022/01/01 04:28:13;;;;;;;25.15;18.88;;;5.90;89.40;;;;;;4946173;28;20130;-81
2022/01/01 04:30:38;;;;;;;24.48;19.10;;;5.90;89.60;;;;;;4922394;29;20467;-81
2022/01/01 04:33:04;;;;;;;27.58;19.02;;;5.90;89.90;;;;;;4953573;28;20043;-81
2022/01/01 04:35:30;;;;;;;47.38;19.98;;;5.90;90.00;;;;;;4947369;28;20063;-81
2022/01/01 04:37:56;;;;;;;21.52;17.85;;;5.90;89.50;;;;;;4945578;28;20039;-80
2022/01/01 04:40:21;;;;;;;27.35;16.90;;;5.80;89.80;;;;;;4951089;28;20160;-81
2022/01/01 04:42:47;;;;;;;40.15;22.75;;;5.80;89.90;;;;;;4938544;28;20107;-80
2022/01/01 04:45:13;;;;;;;26.15;17.08;;;5.60;90.10;;;;;;4919946;29;20042;-80
2022/01/01 04:47:39;;;;;;;19.40;15.70;;;5.60;90.20;;;;;;4936595;29;20043;-80
2022/01/01 04:50:05;;;;;;;21.95;17.33;;;5.60;90.20;;;;;;4941742;28;20036;-80
2022/01/01 04:52:31;;;;;;;31.77;18.77;;;5.70;90.30;;;;;;4919748;29;20030;-80
2022/01/01 04:54:57;;;;;;;113.43;36.65;;;5.60;90.10;;;;;;4933411;29;20035;-80
2022/01/01 04:57:29;;;;;;;24.40;19.52;;;5.40;90.20;;;;;;4925837;28;20039;-80
2022/01/01 04:59:55;;;;;;;21.30;17.40;;;5.20;91.00;;;;;;4929412;29;20492;-80
2022/01/01 05:02:21;;;;;;;20.98;17.02;;;5.30;90.90;;;;;;4934234;29;20404;-80
2022/01/01 05:04:46;;;;;;;21.60;16.73;;;5.30;90.90;;;;;;4940458;29;20039;-80
2022/01/01 05:07:12;;;;;;;20.83;16.67;;;5.40;90.80;;;;;;4933802;29;20048;-80
2022/01/01 05:09:38;;;;;;;22.45;17.75;;;5.50;90.70;;;;;;4946631;29;20464;-80
2022/01/01 05:12:04;;;;;;;21.95;17.60;;;5.60;90.70;;;;;;4920581;29;20039;-80
2022/01/01 05:14:31;;;;;;;23.67;16.40;;;5.70;90.60;;;;;;4942249;29;20050;-80
2022/01/01 05:16:57;;;;;;;19.65;15.68;;;5.80;90.20;;;;;;4940296;29;20499;-81
2022/01/01 05:19:23;;;;;;;34.38;18.02;;;5.80;90.00;;;;;;4931890;29;20051;-80
2022/01/01 05:21:50;;;;;;;23.27;17.17;;;5.70;89.40;;;;;;4932288;29;20047;-80
2022/01/01 05:24:18;;;;;;;20.38;16.70;;;5.70;89.80;;;;;;4963472;29;20032;-81
2022/01/01 05:26:45;;;;;;;20.45;16.13;;;5.70;90.00;;;;;;4942882;29;20500;-80
2022/01/01 05:29:11;;;;;;;23.13;17.85;;;5.80;89.80;;;;;;4953188;28;20036;-80
2022/01/01 05:31:36;;;;;;;20.27;17.05;;;5.80;89.90;;;;;;4948047;28;20042;-80
2022/01/01 05:34:03;;;;;;;21.02;16.98;;;5.90;89.90;;;;;;4957451;28;20484;-79
2022/01/01 05:36:29;;;;;;;22.00;17.67;;;5.90;89.80;;;;;;4954864;28;20035;-80
2022/01/01 05:38:55;;;;;;;32.78;21.85;;;6.00;89.50;;;;;;4952156;29;20091;-79
2022/01/01 05:41:21;;;;;;;21.52;15.95;;;5.90;88.50;;;;;;4946610;28;20384;-80
2022/01/01 05:43:47;;;;;;;16.90;14.40;;;5.80;89.40;;;;;;4959050;28;20097;-81
2022/01/01 05:46:13;;;;;;;19.83;16.40;;;5.70;89.60;;;;;;4945734;28;20044;-80
2022/01/01 05:48:38;;;;;;;20.60;16.75;;;5.70;89.80;;;;;;4943846;28;20405;-81
2022/01/01 05:51:05;;;;;;;20.50;17.05;;;5.80;89.70;;;;;;4954817;28;20481;-81
2022/01/01 05:53:30;;;;;;;36.28;18.67;;;5.90;89.50;;;;;;4941182;29;20020;-81
2022/01/01 05:55:56;;;;;;;20.42;15.85;;;5.90;88.80;;;;;;4949995;28;20043;-81
2022/01/01 05:58:22;;;;;;;26.42;16.85;;;5.80;88.90;;;;;;4943306;28;20055;-81
2022/01/01 06:00:47;;;;;;;23.50;16.42;;;5.80;89.20;;;;;;4954157;28;20043;-81
2022/01/01 06:03:15;;;;;;;35.22;16.33;;;5.70;89.10;;;;;;4948584;28;20031;-80
2022/01/01 06:05:40;;;;;;;21.63;16.70;;;5.70;89.40;;;;;;4949026;28;20118;-81
2022/01/01 06:08:06;;;;;;;37.38;21.90;;;5.70;89.60;;;;;;4940232;29;20484;-81
2022/01/01 06:10:32;;;;;;;18.42;15.20;;;5.60;89.60;;;;;;4953021;28;20538;-80
2022/01/01 06:12:58;;;;;;;19.92;16.50;;;5.60;89.90;;;;;;4954849;28;20054;-81
2022/01/01 06:15:24;;;;;;;31.50;19.30;;;5.60;90.00;;;;;;4957155;28;20036;-80
2022/01/01 06:17:49;;;;;;;30.38;20.27;;;5.70;89.90;;;;;;4955480;28;20039;-80
2022/01/01 06:20:15;;;;;;;61.38;25.15;;;5.60;89.70;;;;;;4927108;29;20047;-81
2022/01/01 06:22:42;;;;;;;22.27;17.35;;;5.50;90.00;;;;;;4941516;29;20035;-80
2022/01/01 06:25:09;;;;;;;44.20;20.05;;;5.50;90.00;;;;;;4942209;29;20047;-80
2022/01/01 06:27:35;;;;;;;30.70;16.75;;;5.50;89.70;;;;;;4956835;28;20043;-80
2022/01/01 06:30:00;;;;;;;22.08;15.93;;;5.30;90.10;;;;;;4947836;29;20058;-81
2022/01/01 06:32:29;;;;;;;21.00;15.93;;;5.20;90.30;;;;;;4944501;28;20063;-80
2022/01/01 06:34:55;;;;;;;77.65;28.50;;;5.20;90.40;;;;;;4971794;28;20063;-80
2022/01/01 06:37:20;;;;;;;34.83;18.77;;;5.20;90.30;;;;;;4933392;29;20704;-81
2022/01/01 06:39:46;;;;;;;21.92;16.88;;;5.30;90.40;;;;;;4947781;29;20054;-81
2022/01/01 06:42:12;;;;;;;34.53;17.85;;;5.20;90.60;;;;;;4945786;29;20488;-80
2022/01/01 06:44:37;;;;;;;109.13;29.30;;;5.20;90.50;;;;;;4952248;28;20058;-81
2022/01/01 06:47:03;;;;;;;20.08;16.52;;;5.20;90.30;;;;;;4941616;29;20107;-81
2022/01/01 06:49:29;;;;;;;35.95;18.35;;;5.30;90.50;;;;;;4950538;28;20047;-81
2022/01/01 06:51:55;;;;;;;19.95;15.82;;;5.10;90.40;;;;;;4945660;29;20050;-81
2022/01/01 06:54:20;;;;;;;21.33;16.27;;;5.20;90.40;;;;;;4932050;29;20481;-81
2022/01/01 06:56:46;;;;;;;19.10;15.93;;;5.30;90.40;;;;;;4952654;28;20036;-82
2022/01/01 06:59:12;;;;;;;18.70;15.48;;;5.30;90.60;;;;;;4932326;29;20087;-81
2022/01/01 07:01:37;;;;;;;23.88;15.73;;;5.30;90.20;;;;;;4945713;28;20035;-81
2022/01/01 07:04:06;;;;;;;19.90;15.65;;;5.30;90.10;;;;;;4927864;29;20050;-81
2022/01/01 07:06:33;;;;;;;22.23;15.45;;;5.30;90.10;;;;;;4937131;29;20130;-81
2022/01/01 07:09:00;;;;;;;25.42;16.08;;;5.30;90.10;;;;;;4922806;29;20051;-81
2022/01/01 07:11:26;;;;;;;25.58;17.17;;;5.30;90.20;;;;;;4938384;29;20110;-81
2022/01/01 07:13:53;;;;;;;32.22;17.60;;;5.20;90.00;;;;;;4952021;28;20079;-81
2022/01/01 07:16:20;;;;;;;19.17;16.02;;;5.30;90.10;;;;;;4943286;28;20086;-82
2022/01/01 07:18:46;;;;;;;61.22;21.02;;;5.30;90.10;;;;;;4938703;29;20048;-81
2022/01/01 07:21:12;;;;;;;55.78;20.50;;;5.20;89.30;;;;;;4952179;28;20051;-81
2022/01/01 07:23:37;;;;;;;20.42;16.33;;;5.00;90.00;;;;;;4945486;29;20048;-80
2022/01/01 07:26:03;;;;;;;103.13;26.30;;;5.00;90.10;;;;;;4953127;28;20043;-81
2022/01/01 07:28:28;;;;;;;35.78;17.48;;;5.00;90.00;;;;;;4943626;28;20118;-81
2022/01/01 07:30:54;;;;;;;63.40;20.52;;;4.90;90.20;;;;;;4953018;28;20051;-81
2022/01/01 07:33:20;;;;;;;152.82;29.10;;;4.80;90.10;;;;;;4943199;29;20045;-81
2022/01/01 07:35:45;;;;;;;21.65;15.15;;;4.80;90.10;;;;;;4952929;28;20098;-81
2022/01/01 07:38:11;;;;;;;57.80;18.67;;;4.80;90.50;;;;;;4955264;28;20114;-81
2022/01/01 07:40:39;;;;;;;25.35;14.82;;;4.80;90.30;;;;;;4940449;29;20043;-81
2022/01/01 07:43:16;;;;;;;32.67;15.93;;;4.70;90.40;;;;;;4950613;28;20046;-81
2022/01/01 07:45:42;;;;;;;17.15;13.45;;;4.60;90.30;;;;;;4947370;28;20043;-81
2022/01/01 07:48:09;;;;;;;16.55;14.45;;;4.70;90.40;;;;;;4937901;28;20410;-82
2022/01/01 07:50:35;;;;;;;17.45;14.95;;;4.70;90.30;;;;;;4950716;29;20067;-82
2022/01/01 07:53:01;;;;;;;22.50;14.40;;;4.80;90.30;;;;;;4941181;28;20364;-80
2022/01/01 07:55:27;;;;;;;22.48;16.38;;;5.00;90.20;;;;;;4920742;29;20118;-82
2022/01/01 07:57:53;;;;;;;20.00;16.70;;;5.00;90.20;;;;;;4947002;28;20103;-81
2022/01/01 08:00:18;;;;;;;19.85;15.88;;;5.10;90.20;;;;;;4945368;28;20507;-80
2022/01/01 08:02:46;;;;;;;23.38;16.60;;;5.20;90.30;;;;;;4952348;28;20047;-82
2022/01/01 08:05:13;;;;;;;20.88;16.98;;;5.20;90.10;;;;;;4950792;28;20061;-81
2022/01/01 08:07:39;;;;;;;19.48;16.70;;;5.30;90.00;;;;;;4952446;28;20047;-85
2022/01/01 08:10:06;;;;;;;23.38;18.05;;;5.30;90.10;;;;;;4923283;29;20448;-81
2022/01/01 08:12:32;;;;;;;17.60;14.73;;;5.30;89.80;;;;;;4940779;28;20059;-81
2022/01/01 08:14:57;;;;;;;23.60;17.98;;;5.30;89.60;;;;;;4944343;28;20380;-81
2022/01/01 08:17:24;;;;;;;20.35;16.77;;;5.30;89.40;;;;;;4954657;28;20036;-81
2022/01/01 08:19:50;;;;;;;32.55;18.90;;;5.30;89.40;;;;;;4941522;28;20039;-81
2022/01/01 08:22:16;;;;;;;20.75;17.45;;;5.20;89.60;;;;;;4940009;28;20423;-80
2022/01/01 08:24:42;;;;;;;39.58;19.20;;;5.30;89.60;;;;;;4958401;28;20039;-80
2022/01/01 08:27:08;;;;;;;40.45;23.85;;;5.30;89.40;;;;;;4929689;29;20036;-80
2022/01/01 08:29:34;;;;;;;23.35;19.10;;;4.90;89.60;;;;;;4949336;28;20039;-80
2022/01/01 08:32:00;;;;;;;23.33;18.70;;;5.00;90.20;;;;;;4948448;29;20500;-80
2022/01/01 08:34:26;;;;;;;24.60;20.10;;;5.10;90.20;;;;;;4937548;29;20036;-81
2022/01/01 08:36:52;;;;;;;24.85;19.83;;;5.20;90.20;;;;;;4943123;29;20041;-81
2022/01/01 08:39:18;;;;;;;25.48;20.55;;;5.30;90.20;;;;;;4949549;28;20050;-81
2022/01/01 08:41:45;;;;;;;25.95;19.38;;;5.40;90.10;;;;;;4938434;29;20039;-81
2022/01/01 08:44:11;;;;;;;25.17;20.48;;;5.50;90.00;;;;;;4940696;29;20047;-80
2022/01/01 08:46:37;;;;;;;25.60;19.83;;;5.50;89.90;;;;;;4940885;29;20043;-80
2022/01/01 08:49:03;;;;;;;28.45;19.98;;;5.40;90.00;;;;;;4925546;29;20055;-80
2022/01/01 08:51:30;;;;;;;25.30;19.63;;;5.50;90.30;;;;;;4926847;29;20179;-79
2022/01/01 08:53:57;;;;;;;24.92;18.65;;;5.40;90.20;;;;;;4950000;29;20122;-83
2022/01/01 08:56:23;;;;;;;40.53;22.02;;;5.50;90.30;;;;;;4935119;29;20036;-83
2022/01/01 08:58:48;;;;;;;30.88;21.02;;;5.60;90.20;;;;;;4952281;29;20042;-84
2022/01/01 09:01:14;;;;;;;23.38;19.85;;;5.70;89.80;;;;;;4941811;29;20044;-85
2022/01/01 09:03:41;;;;;;;23.65;19.45;;;5.50;89.50;;;;;;4930562;29;20048;-81
2022/01/01 09:06:07;;;;;;;26.20;19.75;;;5.40;89.70;;;;;;4928888;29;20047;-82
2022/01/01 09:08:36;;;;;;;25.08;20.35;;;5.40;90.00;;;;;;4940602;28;20476;-85
2022/01/01 09:11:02;;;;;;;40.05;20.63;;;5.50;90.00;;;;;;4937493;29;20036;-85
2022/01/01 09:13:27;;;;;;;26.15;20.73;;;5.50;89.80;;;;;;4920741;29;20087;-85
2022/01/01 09:15:53;;;;;;;30.92;19.42;;;5.50;90.00;;;;;;4937626;29;20043;-85
2022/01/01 09:18:19;;;;;;;24.65;19.00;;;5.50;89.70;;;;;;4938024;29;20047;-85
2022/01/01 09:20:45;;;;;;;63.40;24.17;;;5.50;89.60;;;;;;4925886;29;20079;-85
2022/01/01 09:23:11;;;;;;;24.60;19.08;;;5.60;89.70;;;;;;4926841;29;20051;-85
2022/01/01 09:25:37;;;;;;;26.02;20.17;;;5.50;89.90;;;;;;4946259;28;20043;-85
2022/01/01 09:28:03;;;;;;;84.07;28.52;;;5.50;90.00;;;;;;4944908;28;20043;-85
2022/01/01 09:30:28;;;;;;;26.67;17.70;;;5.70;89.90;;;;;;4943637;29;20039;-85
2022/01/01 09:32:54;;;;;;;30.60;19.88;;;5.60;89.50;;;;;;4930980;29;20047;-85
2022/01/01 09:35:20;;;;;;;40.03;20.73;;;5.60;89.60;;;;;;4931464;29;20040;-84
2022/01/01 09:37:45;;;;;;;102.05;29.20;;;5.60;89.70;;;;;;4946494;28;20035;-86
2022/01/01 09:40:13;;;;;;;115.25;32.17;;;5.40;89.80;;;;;;4959292;28;20027;-86
2022/01/01 09:42:40;;;;;;;42.22;23.73;;;5.20;90.10;;;;;;4943645;29;20036;-85
2022/01/01 09:45:06;;;;;;;25.85;20.20;;;5.20;90.20;;;;;;4941424;29;20484;-85
2022/01/01 09:47:33;;;;;;;26.65;21.48;;;5.30;90.30;;;;;;4950499;29;20034;-85
2022/01/01 09:49:58;;;;;;;49.42;27.77;;;5.40;90.40;;;;;;4948529;29;20032;-85
2022/01/01 09:52:24;;;;;;;36.08;21.67;;;5.50;90.40;;;;;;4937419;29;20455;-85
2022/01/01 09:54:51;;;;;;;69.25;29.10;;;5.40;90.50;;;;;;4957077;28;20040;-85
2022/01/01 09:57:17;;;;;;;31.85;20.75;;;5.40;90.50;;;;;;4940003;29;20064;-85
2022/01/01 09:59:43;;;;;;;33.88;22.00;;;5.50;90.50;;;;;;4940615;29;20507;-85
2022/01/01 10:02:09;;;;;;;38.45;24.95;;;5.50;90.50;;;;;;4938678;29;20051;-85
2022/01/01 10:04:52;;;;;;;37.28;22.33;;;5.60;90.50;;;;;;4945633;29;20373;-84
2022/01/01 10:07:26;;;;;;;26.60;20.58;;;5.60;90.40;;;;;;4931542;29;20052;-85
2022/01/01 10:09:52;;;;;;;29.02;21.27;;;5.70;90.60;;;;;;4953136;28;20051;-85
2022/01/01 10:12:18;;;;;;;26.75;21.65;;;5.70;90.60;;;;;;4950833;28;20134;-85
2022/01/01 10:14:46;;;;;;;27.42;22.73;;;5.80;90.40;;;;;;4940798;28;20043;-85
2022/01/01 10:17:22;;;;;;;28.42;22.17;;;5.90;90.40;;;;;;4953534;28;20122;-85
2022/01/01 10:19:51;;;;;;;24.92;21.08;;;6.00;90.30;;;;;;4939892;29;20086;-85
2022/01/01 10:22:19;;;;;;;26.73;21.83;;;6.20;90.30;;;;;;4940895;28;20169;-85
2022/01/01 10:27:44;;;;;;;26.00;22.58;;;6.20;90.00;;;;;;4955029;28;20186;-85
2022/01/01 10:30:20;;;;;;;25.90;21.30;;;6.20;90.10;;;;;;4944855;28;20044;-85
2022/01/01 10:33:03;;;;;;;28.50;22.95;;;6.40;90.10;;;;;;4937412;29;20039;-85
2022/01/01 10:35:35;;;;;;;68.53;38.53;;;6.40;90.10;;;;;;4956685;29;20035;-85
2022/01/01 10:38:04;;;;;;;27.55;23.33;;;6.40;89.10;;;;;;4949177;28;20050;-84
2022/01/01 10:40:30;;;;;;;31.75;25.15;;;6.30;90.00;;;;;;4957747;28;20097;-85
2022/01/01 10:42:56;;;;;;;30.05;24.70;;;6.30;90.00;;;;;;4959417;28;20107;-85
2022/01/01 10:45:30;;;;;;;30.60;25.38;;;6.40;89.90;;;;;;4955198;28;20130;-85
2022/01/01 10:48:23;;;;;;;31.15;24.88;;;6.50;89.90;;;;;;4958125;28;20377;-85
2022/01/01 10:50:51;;;;;;;31.55;25.30;;;6.60;90.00;;;;;;4938035;29;20593;-84
2022/01/01 10:53:26;;;;;;;40.92;29.15;;;6.70;90.00;;;;;;4939375;29;20461;-85
2022/01/01 10:55:55;;;;;;;30.80;24.63;;;6.80;89.90;;;;;;4939674;29;20035;-85
2022/01/01 10:58:23;;;;;;;33.15;25.50;;;6.60;89.30;;;;;;4935928;29;20126;-90
2022/01/01 11:00:50;;;;;;;35.13;27.90;;;6.50;90.00;;;;;;4941864;29;20035;-80
2022/01/01 11:03:19;;;;;;;32.90;26.08;;;6.60;90.00;;;;;;4951298;28;20039;-81
2022/01/01 11:05:46;;;;;;;30.95;25.35;;;6.60;89.80;;;;;;4940161;28;20086;-80
2022/01/01 11:08:13;;;;;;;34.13;27.23;;;6.70;90.00;;;;;;4942285;28;20081;-80
2022/01/01 11:10:40;;;;;;;32.47;26.48;;;6.80;89.80;;;;;;4945278;28;20040;-80
2022/01/01 11:13:07;;;;;;;34.53;26.30;;;6.80;89.60;;;;;;4946537;28;20483;-81
2022/01/01 11:15:33;;;;;;;31.75;25.63;;;6.80;89.40;;;;;;4953029;28;20042;-80
2022/01/01 11:18:01;;;;;;;34.47;27.50;;;6.80;89.30;;;;;;4937999;29;20461;-80
2022/01/01 11:20:33;;;;;;;34.75;28.50;;;6.80;89.40;;;;;;4940649;29;20040;-80
2022/01/01 11:23:02;;;;;;;52.40;36.95;;;6.90;89.30;;;;;;4934486;29;20048;-80
2022/01/01 11:25:28;;;;;;;33.53;26.60;;;6.90;88.70;;;;;;4955846;28;20036;-81
2022/01/01 11:27:55;;;;;;;35.25;27.35;;;6.90;89.30;;;;;;4949310;28;20400;-80
2022/01/01 11:30:27;;;;;;;31.85;25.95;;;7.00;89.40;;;;;;4927499;29;20035;-80
2022/01/01 11:33:15;;;;;;;34.25;27.45;;;7.10;89.40;;;;;;4938203;29;20039;-80
2022/01/01 11:35:44;;;;;;;33.70;27.02;;;7.20;89.00;;;;;;4931994;29;20031;-81
2022/01/01 11:38:16;;;;;;;32.83;26.37;;;7.20;88.60;;;;;;4953896;28;20043;-81
2022/01/01 11:40:58;;;;;;;35.10;28.00;;;7.30;88.40;;;;;;4948312;28;20047;-80
2022/01/01 11:43:51;;;;;;;33.20;26.58;;;7.30;88.30;;;;;;4952289;28;20044;-80
2022/01/01 11:46:18;;;;;;;40.95;30.73;;;7.30;88.10;;;;;;4934572;28;20051;-83
2022/01/01 11:48:46;;;;;;;49.15;34.47;;;7.20;88.20;;;;;;4946400;28;20036;-83
2022/01/01 11:51:24;;;;;;;54.13;36.75;;;7.20;88.30;;;;;;4943971;28;20036;-83
2022/01/01 11:54:27;;;;;;;59.67;40.22;;;7.20;88.50;;;;;;4958305;28;20039;-82
2022/01/01 11:57:17;;;;;;;56.67;38.35;;;7.20;88.50;;;;;;4945304;28;20044;-83
2022/01/01 11:59:58;;;;;;;56.53;36.72;;;7.30;88.30;;;;;;4951293;28;20127;-83
2022/01/01 12:02:24;;;;;;;69.60;45.28;;;7.30;88.10;;;;;;4941357;28;20040;-83
2022/01/01 12:05:10;;;;;;;54.33;36.35;;;7.30;87.90;;;;;;4942780;28;20449;-83
2022/01/01 12:07:46;;;;;;;54.95;37.30;;;7.20;88.20;;;;;;4942678;28;20074;-83
2022/01/01 12:10:15;;;;;;;38.50;28.50;;;7.10;88.00;;;;;;4954356;28;20101;-83
2022/01/01 12:12:52;;;;;;;47.22;31.63;;;7.10;88.30;;;;;;4942877;28;20484;-83
2022/01/01 12:15:29;;;;;;;65.43;44.45;;;7.10;88.50;;;;;;4947413;29;20070;-83
2022/01/01 12:18:03;;;;;;;40.10;29.55;;;7.10;88.30;;;;;;4953276;28;20538;-83
2022/01/01 12:20:41;;;;;;;45.38;32.28;;;7.00;88.70;;;;;;4951009;28;20035;-83
2022/01/01 12:23:12;;;;;;;44.35;30.80;;;7.00;88.70;;;;;;4932663;29;20072;-83
2022/01/01 12:25:39;;;;;;;49.78;34.45;;;7.00;88.70;;;;;;4948609;29;20042;-84
2022/01/01 12:28:12;;;;;;;49.13;34.58;;;7.00;88.80;;;;;;4948209;28;20097;-83
2022/01/01 12:30:51;;;;;;;39.80;29.63;;;7.00;88.80;;;;;;4938051;29;20040;-83
2022/01/01 12:33:41;;;;;;;42.85;30.38;;;6.90;88.90;;;;;;4943210;28;20028;-83
2022/01/01 12:36:07;;;;;;;;;;;7.00;89.00;;;;;;4942438;29;20032;-83
2022/01/01 12:38:40;;;;;;;40.38;28.45;;;6.90;89.10;;;;;;4935279;28;19941;-84
2022/01/01 23:31:53;;;;;;;48.40;22.77;;;5.20;90.40;;;;;;5015134;23;20090;-96
2022/01/01 23:35:04;;;;;;;28.40;20.13;;;5.10;90.30;;;;;;4968351;28;20409;-96
2022/01/01 23:37:41;;;;;;;22.05;17.48;;;5.00;90.30;;;;;;4913806;29;20122;-96
2022/01/01 23:40:18;;;;;;;38.95;17.88;;;5.00;90.40;;;;;;4964414;29;20509;-96
2022/01/01 23:43:24;;;;;;;;;;;;;;;;;;;;;
2022/01/01 23:46:50;;;;;;;;;;;;;;;;;;;;;
2022/01/01 23:49:32;;;;;;;;;;;;;;;;;;;;;
2022/01/01 23:52:23;;;;;;;22.58;19.08;;;5.20;90.30;;;;;;4946732;29;20091;-96
2022/01/01 23:55:34;;;;;;;;;;;;;;;;;;;;;
2022/01/01 23:58:57;;;;;;;21.23;18.23;;;5.30;89.80;;;;;;4907509;29;20116;-96
